sensor_id;sensor_type;location;lat;lon;timestamp;pressure;altitude;pressure_sealevel;temperature;humidity
75991;BME280;64673;52.276;10.560;2024-01-25T00:00:15;101270.44;;;7.76;87.57
75991;BME280;64673;52.276;10.560;2024-01-25T00:02:40;101287.16;;;7.78;87.95
75991;BME280;64673;52.276;10.560;2024-01-25T00:05:06;101267.75;;;7.76;87.95
75991;BME280;64673;52.276;10.560;2024-01-25T00:07:32;101274.78;;;7.77;87.90
75991;BME280;64673;52.276;10.560;2024-01-25T00:09:57;101277.69;;;7.76;88.39
75991;BME280;64673;52.276;10.560;2024-01-25T00:12:23;101290.88;;;7.77;87.95
75991;BME280;64673;52.276;10.560;2024-01-25T00:14:48;101284.69;;;7.77;87.83
75991;BME280;64673;52.276;10.560;2024-01-25T00:17:13;101292.53;;;7.78;87.51
75991;BME280;64673;52.276;10.560;2024-01-25T00:19:39;101294.16;;;7.79;87.63
75991;BME280;64673;52.276;10.560;2024-01-25T00:22:06;101291.94;;;7.76;87.27
75991;BME280;64673;52.276;10.560;2024-01-25T00:24:32;101279.69;;;7.80;87.39
75991;BME280;64673;52.276;10.560;2024-01-25T00:26:58;101291.94;;;7.76;87.81
75991;BME280;64673;52.276;10.560;2024-01-25T00:29:23;101283.41;;;7.79;87.39
75991;BME280;64673;52.276;10.560;2024-01-25T00:31:49;101277.69;;;7.76;87.89
75991;BME280;64673;52.276;10.560;2024-01-25T00:34:15;101280.16;;;7.77;88.43
75991;BME280;64673;52.276;10.560;2024-01-25T00:36:40;101280.72;;;7.79;88.08
75991;BME280;64673;52.276;10.560;2024-01-25T00:39:06;101289.84;;;7.78;87.91
75991;BME280;64673;52.276;10.560;2024-01-25T00:41:32;101294.16;;;7.79;87.87
75991;BME280;64673;52.276;10.560;2024-01-25T00:43:57;101289.25;;;7.76;87.93
75991;BME280;64673;52.276;10.560;2024-01-25T00:46:23;101288.56;;;7.81;87.64
75991;BME280;64673;52.276;10.560;2024-01-25T00:48:49;101286.69;;;7.81;87.74
75991;BME280;64673;52.276;10.560;2024-01-25T00:51:15;101295.78;;;7.80;88.09
75991;BME280;64673;52.276;10.560;2024-01-25T00:53:46;101293.78;;;7.76;88.39
75991;BME280;64673;52.276;10.560;2024-01-25T00:56:11;101292.06;;;7.81;88.37
75991;BME280;64673;52.276;10.560;2024-01-25T00:58:37;101290.28;;;7.75;88.65
75991;BME280;64673;52.276;10.560;2024-01-25T01:01:03;101287.16;;;7.78;88.77
75991;BME280;64673;52.276;10.560;2024-01-25T01:03:29;101289.72;;;7.73;88.50
75991;BME280;64673;52.276;10.560;2024-01-25T01:05:54;101281.53;;;7.68;88.74
75991;BME280;64673;52.276;10.560;2024-01-25T01:08:20;101296.97;;;7.72;89.38
75991;BME280;64673;52.276;10.560;2024-01-25T01:10:46;101293.91;;;7.69;89.13
75991;BME280;64673;52.276;10.560;2024-01-25T01:13:11;101340.16;;;7.71;89.43
75991;BME280;64673;52.276;10.560;2024-01-25T01:15:37;101297.19;;;7.71;89.76
75991;BME280;64673;52.276;10.560;2024-01-25T01:18:02;101298.69;;;7.67;89.51
75991;BME280;64673;52.276;10.560;2024-01-25T01:20:28;101297.06;;;7.66;89.90
75991;BME280;64673;52.276;10.560;2024-01-25T01:22:54;101308.41;;;7.68;89.91
75991;BME280;64673;52.276;10.560;2024-01-25T01:25:19;101311.75;;;7.63;89.80
75991;BME280;64673;52.276;10.560;2024-01-25T01:27:44;101320.06;;;7.62;89.56
75991;BME280;64673;52.276;10.560;2024-01-25T01:30:10;101298.59;;;7.62;90.02
75991;BME280;64673;52.276;10.560;2024-01-25T01:32:36;101286.78;;;7.63;90.22
75991;BME280;64673;52.276;10.560;2024-01-25T01:35:01;101287.25;;;7.60;89.91
75991;BME280;64673;52.276;10.560;2024-01-25T01:37:26;101288.69;;;7.62;89.77
75991;BME280;64673;52.276;10.560;2024-01-25T01:39:51;101273.47;;;7.56;89.73
75991;BME280;64673;52.276;10.560;2024-01-25T01:42:18;101271.75;;;7.62;89.29
75991;BME280;64673;52.276;10.560;2024-01-25T01:44:43;101279.22;;;7.60;89.37
75991;BME280;64673;52.276;10.560;2024-01-25T01:47:08;101274.44;;;7.62;89.16
75991;BME280;64673;52.276;10.560;2024-01-25T01:49:34;101266.84;;;7.59;89.60
75991;BME280;64673;52.276;10.560;2024-01-25T01:52:00;101265.66;;;7.55;89.84
75991;BME280;64673;52.276;10.560;2024-01-25T01:54:25;101273.13;;;7.53;90.13
75991;BME280;64673;52.276;10.560;2024-01-25T01:56:51;101288.66;;;7.51;89.86
75991;BME280;64673;52.276;10.560;2024-01-25T01:59:17;101272.41;;;7.46;90.27
75991;BME280;64673;52.276;10.560;2024-01-25T02:01:42;101256.31;;;7.46;90.34
75991;BME280;64673;52.276;10.560;2024-01-25T02:04:08;101257.94;;;7.47;90.71
75991;BME280;64673;52.276;10.560;2024-01-25T02:06:33;101279.06;;;7.43;91.03
75991;BME280;64673;52.276;10.560;2024-01-25T02:08:59;101286.78;;;7.40;91.16
75991;BME280;64673;52.276;10.560;2024-01-25T02:11:25;101280.81;;;7.38;91.13
75991;BME280;64673;52.276;10.560;2024-01-25T02:13:50;101279.53;;;7.40;91.63
75991;BME280;64673;52.276;10.560;2024-01-25T02:16:16;101299.59;;;7.38;91.60
75991;BME280;64673;52.276;10.560;2024-01-25T02:18:42;101294.00;;;7.39;91.53
75991;BME280;64673;52.276;10.560;2024-01-25T02:21:11;101307.72;;;7.31;92.26
75991;BME280;64673;52.276;10.560;2024-01-25T02:23:36;101309.03;;;7.28;92.15
75991;BME280;64673;52.276;10.560;2024-01-25T02:26:01;101299.94;;;7.29;92.95
75991;BME280;64673;52.276;10.560;2024-01-25T02:28:27;101310.75;;;7.23;93.21
75991;BME280;64673;52.276;10.560;2024-01-25T02:30:52;101312.59;;;7.22;93.32
75991;BME280;64673;52.276;10.560;2024-01-25T02:33:18;101313.66;;;7.21;93.75
75991;BME280;64673;52.276;10.560;2024-01-25T02:35:43;101318.19;;;7.21;93.47
75991;BME280;64673;52.276;10.560;2024-01-25T02:38:08;101316.59;;;7.20;93.78
75991;BME280;64673;52.276;10.560;2024-01-25T02:40:34;101302.66;;;7.11;94.14
75991;BME280;64673;52.276;10.560;2024-01-25T02:42:59;101311.75;;;7.10;94.38
75991;BME280;64673;52.276;10.560;2024-01-25T02:45:24;101313.38;;;7.11;94.77
75991;BME280;64673;52.276;10.560;2024-01-25T02:47:50;101327.06;;;7.10;94.68
75991;BME280;64673;52.276;10.560;2024-01-25T02:50:15;101314.44;;;7.10;94.77
75991;BME280;64673;52.276;10.560;2024-01-25T02:52:41;101329.34;;;7.06;94.72
75991;BME280;64673;52.276;10.560;2024-01-25T02:55:07;101338.66;;;7.04;94.99
75991;BME280;64673;52.276;10.560;2024-01-25T02:57:33;101323.28;;;6.99;95.13
75991;BME280;64673;52.276;10.560;2024-01-25T02:59:58;101339.94;;;7.01;95.12
75991;BME280;64673;52.276;10.560;2024-01-25T03:02:24;101307.75;;;7.01;95.24
75991;BME280;64673;52.276;10.560;2024-01-25T03:04:49;101328.03;;;6.97;95.44
75991;BME280;64673;52.276;10.560;2024-01-25T03:07:14;101327.44;;;6.95;95.63
75991;BME280;64673;52.276;10.560;2024-01-25T03:09:40;101329.75;;;6.91;95.77
75991;BME280;64673;52.276;10.560;2024-01-25T03:12:05;101319.41;;;6.95;95.93
75991;BME280;64673;52.276;10.560;2024-01-25T03:14:31;101324.75;;;6.95;96.12
75991;BME280;64673;52.276;10.560;2024-01-25T03:16:56;101342.13;;;6.92;96.00
75991;BME280;64673;52.276;10.560;2024-01-25T03:19:27;101317.75;;;6.94;95.87
75991;BME280;64673;52.276;10.560;2024-01-25T03:21:53;101315.41;;;6.86;95.75
75991;BME280;64673;52.276;10.560;2024-01-25T03:24:20;101365.09;;;6.88;95.83
75991;BME280;64673;52.276;10.560;2024-01-25T03:26:45;101314.59;;;6.85;95.85
75991;BME280;64673;52.276;10.560;2024-01-25T03:29:10;101317.03;;;6.87;96.03
75991;BME280;64673;52.276;10.560;2024-01-25T03:31:35;101326.13;;;6.86;96.04
75991;BME280;64673;52.276;10.560;2024-01-25T03:34:02;101319.94;;;6.85;96.33
75991;BME280;64673;52.276;10.560;2024-01-25T03:36:27;101319.13;;;6.85;96.21
75991;BME280;64673;52.276;10.560;2024-01-25T03:38:53;101315.84;;;6.83;96.14
75991;BME280;64673;52.276;10.560;2024-01-25T03:41:18;101325.75;;;6.82;96.28
75991;BME280;64673;52.276;10.560;2024-01-25T03:43:43;101334.00;;;6.81;96.89
75991;BME280;64673;52.276;10.560;2024-01-25T03:46:10;101330.28;;;6.82;96.34
75991;BME280;64673;52.276;10.560;2024-01-25T03:48:35;101348.03;;;6.83;96.61
75991;BME280;64673;52.276;10.560;2024-01-25T03:51:01;101356.66;;;6.85;96.22
75991;BME280;64673;52.276;10.560;2024-01-25T03:53:26;101359.56;;;6.83;96.34
75991;BME280;64673;52.276;10.560;2024-01-25T03:55:51;101369.47;;;6.83;96.50
75991;BME280;64673;52.276;10.560;2024-01-25T03:58:17;101369.03;;;6.86;96.37
75991;BME280;64673;52.276;10.560;2024-01-25T04:00:43;101382.44;;;6.86;96.51
75991;BME280;64673;52.276;10.560;2024-01-25T04:03:10;101391.97;;;6.82;96.43
75991;BME280;64673;52.276;10.560;2024-01-25T04:05:35;101381.44;;;6.80;97.02
75991;BME280;64673;52.276;10.560;2024-01-25T04:08:01;101381.38;;;6.87;96.88
75991;BME280;64673;52.276;10.560;2024-01-25T04:10:26;101391.75;;;6.83;96.51
75991;BME280;64673;52.276;10.560;2024-01-25T04:12:51;101397.91;;;6.84;96.43
75991;BME280;64673;52.276;10.560;2024-01-25T04:15:17;101404.69;;;6.86;96.41
75991;BME280;64673;52.276;10.560;2024-01-25T04:17:42;101404.09;;;6.84;96.62
75991;BME280;64673;52.276;10.560;2024-01-25T04:20:08;101400.38;;;6.85;96.75
75991;BME280;64673;52.276;10.560;2024-01-25T04:22:35;101405.97;;;6.84;96.87
75991;BME280;64673;52.276;10.560;2024-01-25T04:25:00;101402.09;;;6.80;97.22
75991;BME280;64673;52.276;10.560;2024-01-25T04:27:25;101413.63;;;6.80;96.98
75991;BME280;64673;52.276;10.560;2024-01-25T04:29:51;101409.09;;;6.81;96.92
75991;BME280;64673;52.276;10.560;2024-01-25T04:32:16;101415.69;;;6.78;96.87
75991;BME280;64673;52.276;10.560;2024-01-25T04:34:43;101417.81;;;6.76;97.18
75991;BME280;64673;52.276;10.560;2024-01-25T04:37:11;101443.81;;;6.76;96.87
75991;BME280;64673;52.276;10.560;2024-01-25T04:39:37;101436.78;;;6.75;96.70
75991;BME280;64673;52.276;10.560;2024-01-25T04:42:02;101445.28;;;6.72;97.03
75991;BME280;64673;52.276;10.560;2024-01-25T04:44:27;101447.56;;;6.68;97.23
75991;BME280;64673;52.276;10.560;2024-01-25T04:46:53;101461.78;;;6.69;97.66
75991;BME280;64673;52.276;10.560;2024-01-25T04:49:19;101449.28;;;6.63;97.53
75991;BME280;64673;52.276;10.560;2024-01-25T04:51:45;101458.16;;;6.63;97.90
75991;BME280;64673;52.276;10.560;2024-01-25T04:54:10;101482.50;;;6.61;97.97
75991;BME280;64673;52.276;10.560;2024-01-25T04:56:38;101474.63;;;6.67;97.94
75991;BME280;64673;52.276;10.560;2024-01-25T04:59:03;101477.34;;;6.60;97.91
75991;BME280;64673;52.276;10.560;2024-01-25T05:01:29;101485.59;;;6.58;97.97
75991;BME280;64673;52.276;10.560;2024-01-25T05:03:54;101482.09;;;6.58;97.59
75991;BME280;64673;52.276;10.560;2024-01-25T05:06:20;101474.06;;;6.58;97.82
75991;BME280;64673;52.276;10.560;2024-01-25T05:08:45;101471.03;;;6.54;98.19
75991;BME280;64673;52.276;10.560;2024-01-25T05:11:11;101469.22;;;6.48;98.28
75991;BME280;64673;52.276;10.560;2024-01-25T05:13:36;101479.28;;;6.53;98.14
75991;BME280;64673;52.276;10.560;2024-01-25T05:16:01;101495.38;;;6.53;98.61
75991;BME280;64673;52.276;10.560;2024-01-25T05:18:27;101497.44;;;6.51;98.09
75991;BME280;64673;52.276;10.560;2024-01-25T05:20:52;101496.47;;;6.45;98.29
75991;BME280;64673;52.276;10.560;2024-01-25T05:23:17;101505.25;;;6.52;98.20
75991;BME280;64673;52.276;10.560;2024-01-25T05:25:43;101492.28;;;6.49;98.25
75991;BME280;64673;52.276;10.560;2024-01-25T05:28:08;101505.09;;;6.47;98.00
75991;BME280;64673;52.276;10.560;2024-01-25T05:30:33;101504.03;;;6.48;97.76
75991;BME280;64673;52.276;10.560;2024-01-25T05:32:59;101500.75;;;6.46;97.96
75991;BME280;64673;52.276;10.560;2024-01-25T05:35:24;101495.66;;;6.45;98.11
75991;BME280;64673;52.276;10.560;2024-01-25T05:37:50;101498.06;;;6.46;98.13
75991;BME280;64673;52.276;10.560;2024-01-25T05:40:15;101498.31;;;6.45;98.09
75991;BME280;64673;52.276;10.560;2024-01-25T05:42:41;101486.56;;;6.46;97.71
75991;BME280;64673;52.276;10.560;2024-01-25T05:45:07;101511.94;;;6.43;97.69
75991;BME280;64673;52.276;10.560;2024-01-25T05:47:32;101489.91;;;6.41;98.49
75991;BME280;64673;52.276;10.560;2024-01-25T05:49:59;101503.91;;;6.43;98.57
75991;BME280;64673;52.276;10.560;2024-01-25T05:52:25;101505.38;;;6.39;99.08
75991;BME280;64673;52.276;10.560;2024-01-25T05:54:50;101508.66;;;6.41;98.99
75991;BME280;64673;52.276;10.560;2024-01-25T05:57:16;101507.44;;;6.37;98.69
75991;BME280;64673;52.276;10.560;2024-01-25T05:59:42;101503.34;;;6.35;98.91
75991;BME280;64673;52.276;10.560;2024-01-25T06:02:07;101499.41;;;6.37;99.38
75991;BME280;64673;52.276;10.560;2024-01-25T06:04:34;101507.88;;;6.34;99.77
75991;BME280;64673;52.276;10.560;2024-01-25T06:06:59;101500.88;;;6.33;99.18
75991;BME280;64673;52.276;10.560;2024-01-25T06:09:25;101516.16;;;6.26;99.33
75991;BME280;64673;52.276;10.560;2024-01-25T06:11:50;101518.63;;;6.28;99.64
75991;BME280;64673;52.276;10.560;2024-01-25T06:14:16;101516.56;;;6.30;99.66
75991;BME280;64673;52.276;10.560;2024-01-25T06:16:41;101521.50;;;6.33;99.00
75991;BME280;64673;52.276;10.560;2024-01-25T06:19:07;101537.78;;;6.31;98.71
75991;BME280;64673;52.276;10.560;2024-01-25T06:21:33;101561.50;;;6.28;98.93
75991;BME280;64673;52.276;10.560;2024-01-25T06:24:03;101536.75;;;6.32;99.32
75991;BME280;64673;52.276;10.560;2024-01-25T06:26:29;101527.13;;;6.24;99.55
75991;BME280;64673;52.276;10.560;2024-01-25T06:28:55;101554.28;;;6.28;99.36
75991;BME280;64673;52.276;10.560;2024-01-25T06:31:20;101545.22;;;6.29;99.70
75991;BME280;64673;52.276;10.560;2024-01-25T06:33:45;101533.88;;;6.27;99.84
75991;BME280;64673;52.276;10.560;2024-01-25T06:36:15;101521.19;;;6.16;99.77
75991;BME280;64673;52.276;10.560;2024-01-25T06:38:40;101541.31;;;6.25;99.61
75991;BME280;64673;52.276;10.560;2024-01-25T06:41:07;101540.13;;;6.21;99.25
75991;BME280;64673;52.276;10.560;2024-01-25T06:43:32;101535.59;;;6.21;99.61
75991;BME280;64673;52.276;10.560;2024-01-25T06:45:57;101547.34;;;6.20;100.00
75991;BME280;64673;52.276;10.560;2024-01-25T06:48:23;101539.53;;;6.19;99.80
75991;BME280;64673;52.276;10.560;2024-01-25T06:50:48;101559.91;;;6.20;99.21
75991;BME280;64673;52.276;10.560;2024-01-25T06:53:15;101552.69;;;6.20;100.00
75991;BME280;64673;52.276;10.560;2024-01-25T06:55:41;101556.19;;;6.21;100.00
75991;BME280;64673;52.276;10.560;2024-01-25T06:58:06;101555.16;;;6.22;100.00
75991;BME280;64673;52.276;10.560;2024-01-25T07:00:32;101553.53;;;6.21;100.00
75991;BME280;64673;52.276;10.560;2024-01-25T07:02:57;101559.31;;;6.18;99.96
75991;BME280;64673;52.276;10.560;2024-01-25T07:05:22;101566.31;;;6.19;100.00
75991;BME280;64673;52.276;10.560;2024-01-25T07:07:49;101565.09;;;6.15;100.00
75991;BME280;64673;52.276;10.560;2024-01-25T07:10:14;101566.16;;;6.14;100.00
75991;BME280;64673;52.276;10.560;2024-01-25T07:12:40;101572.69;;;6.18;100.00
75991;BME280;64673;52.276;10.560;2024-01-25T07:15:05;101587.34;;;6.15;100.00
75991;BME280;64673;52.276;10.560;2024-01-25T07:17:31;101571.72;;;6.12;100.00
75991;BME280;64673;52.276;10.560;2024-01-25T07:19:56;101569.84;;;6.13;100.00
75991;BME280;64673;52.276;10.560;2024-01-25T07:22:21;101585.47;;;6.16;100.00
75991;BME280;64673;52.276;10.560;2024-01-25T07:24:47;101594.31;;;6.23;100.00
75991;BME280;64673;52.276;10.560;2024-01-25T07:27:13;101589.44;;;6.13;100.00
75991;BME280;64673;52.276;10.560;2024-01-25T07:29:38;101612.50;;;6.14;100.00
75991;BME280;64673;52.276;10.560;2024-01-25T07:32:03;101622.38;;;6.14;100.00
75991;BME280;64673;52.276;10.560;2024-01-25T07:34:29;101620.75;;;6.13;100.00
75991;BME280;64673;52.276;10.560;2024-01-25T07:36:54;101621.78;;;6.12;100.00
75991;BME280;64673;52.276;10.560;2024-01-25T07:39:20;101613.75;;;6.12;100.00
75991;BME280;64673;52.276;10.560;2024-01-25T07:41:45;101621.56;;;6.13;100.00
75991;BME280;64673;52.276;10.560;2024-01-25T07:44:10;101639.03;;;6.16;100.00
75991;BME280;64673;52.276;10.560;2024-01-25T07:46:36;101646.50;;;6.14;100.00
75991;BME280;64673;52.276;10.560;2024-01-25T07:49:01;101644.03;;;6.12;100.00
75991;BME280;64673;52.276;10.560;2024-01-25T07:51:26;101645.06;;;6.05;100.00
75991;BME280;64673;52.276;10.560;2024-01-25T07:53:54;101645.88;;;6.12;100.00
75991;BME280;64673;52.276;10.560;2024-01-25T07:56:19;101636.19;;;6.11;100.00
75991;BME280;64673;52.276;10.560;2024-01-25T07:58:47;101644.84;;;6.13;100.00
75991;BME280;64673;52.276;10.560;2024-01-25T08:01:17;101646.25;;;6.15;100.00
75991;BME280;64673;52.276;10.560;2024-01-25T08:03:43;101643.00;;;6.07;100.00
75991;BME280;64673;52.276;10.560;2024-01-25T08:06:08;101642.38;;;6.11;100.00
75991;BME280;64673;52.276;10.560;2024-01-25T08:08:34;101652.88;;;6.13;100.00
75991;BME280;64673;52.276;10.560;2024-01-25T08:10:59;101651.66;;;6.09;100.00
75991;BME280;64673;52.276;10.560;2024-01-25T08:13:24;101644.25;;;6.11;100.00
75991;BME280;64673;52.276;10.560;2024-01-25T08:15:51;101657.22;;;6.07;100.00
75991;BME280;64673;52.276;10.560;2024-01-25T08:18:16;101649.19;;;6.14;100.00
75991;BME280;64673;52.276;10.560;2024-01-25T08:20:44;101657.84;;;6.09;100.00
75991;BME280;64673;52.276;10.560;2024-01-25T08:23:09;101641.66;;;5.91;100.00
75991;BME280;64673;52.276;10.560;2024-01-25T08:25:35;101661.97;;;6.05;100.00
75991;BME280;64673;52.276;10.560;2024-01-25T08:28:00;101648.19;;;6.02;100.00
75991;BME280;64673;52.276;10.560;2024-01-25T08:30:28;101669.41;;;6.03;100.00
75991;BME280;64673;52.276;10.560;2024-01-25T08:32:54;101665.09;;;6.02;100.00
75991;BME280;64673;52.276;10.560;2024-01-25T08:35:20;101662.63;;;6.01;100.00
75991;BME280;64673;52.276;10.560;2024-01-25T08:37:45;101668.63;;;5.90;100.00
75991;BME280;64673;52.276;10.560;2024-01-25T08:40:11;101671.09;;;5.91;100.00
75991;BME280;64673;52.276;10.560;2024-01-25T08:42:36;101679.91;;;5.98;100.00
75991;BME280;64673;52.276;10.560;2024-01-25T08:45:02;101685.91;;;5.94;100.00
75991;BME280;64673;52.276;10.560;2024-01-25T08:47:28;101683.84;;;6.02;100.00
75991;BME280;64673;52.276;10.560;2024-01-25T08:49:53;101685.06;;;6.00;100.00
75991;BME280;64673;52.276;10.560;2024-01-25T08:52:19;101696.59;;;5.94;100.00
75991;BME280;64673;52.276;10.560;2024-01-25T08:54:44;101717.22;;;5.93;100.00
75991;BME280;64673;52.276;10.560;2024-01-25T08:57:09;101698.69;;;5.92;100.00
75991;BME280;64673;52.276;10.560;2024-01-25T08:59:35;101702.38;;;5.97;100.00
75991;BME280;64673;52.276;10.560;2024-01-25T09:02:03;101710.41;;;5.97;100.00
75991;BME280;64673;52.276;10.560;2024-01-25T09:04:30;101719.06;;;5.99;100.00
75991;BME280;64673;52.276;10.560;2024-01-25T09:06:55;101705.66;;;5.99;100.00
75991;BME280;64673;52.276;10.560;2024-01-25T09:09:20;101715.16;;;6.02;100.00
75991;BME280;64673;52.276;10.560;2024-01-25T09:11:46;101722.72;;;6.05;100.00
75991;BME280;64673;52.276;10.560;2024-01-25T09:14:11;101713.91;;;5.98;100.00
75991;BME280;64673;52.276;10.560;2024-01-25T09:16:36;101722.34;;;6.01;100.00
75991;BME280;64673;52.276;10.560;2024-01-25T09:19:03;101721.69;;;6.06;100.00
75991;BME280;64673;52.276;10.560;2024-01-25T09:21:29;101722.16;;;6.03;100.00
75991;BME280;64673;52.276;10.560;2024-01-25T09:23:54;101729.34;;;6.02;100.00
75991;BME280;64673;52.276;10.560;2024-01-25T09:26:19;101726.66;;;6.09;100.00
75991;BME280;64673;52.276;10.560;2024-01-25T09:28:45;101729.53;;;6.07;100.00
75991;BME280;64673;52.276;10.560;2024-01-25T09:31:10;101718.66;;;6.02;100.00
75991;BME280;64673;52.276;10.560;2024-01-25T09:33:35;101726.69;;;6.02;100.00
75991;BME280;64673;52.276;10.560;2024-01-25T09:36:00;101722.72;;;6.05;100.00
75991;BME280;64673;52.276;10.560;2024-01-25T09:38:26;101734.88;;;6.07;100.00
75991;BME280;64673;52.276;10.560;2024-01-25T09:40:52;101741.69;;;6.10;100.00
75991;BME280;64673;52.276;10.560;2024-01-25T09:43:18;101746.00;;;6.11;100.00
75991;BME280;64673;52.276;10.560;2024-01-25T09:45:46;101753.44;;;6.09;100.00
75991;BME280;64673;52.276;10.560;2024-01-25T09:48:12;101743.53;;;6.09;100.00
75991;BME280;64673;52.276;10.560;2024-01-25T09:50:38;101756.06;;;6.15;100.00
75991;BME280;64673;52.276;10.560;2024-01-25T09:53:05;101755.03;;;6.16;100.00
75991;BME280;64673;52.276;10.560;2024-01-25T09:55:32;101765.16;;;6.14;100.00
75991;BME280;64673;52.276;10.560;2024-01-25T09:58:04;101758.34;;;6.18;100.00
75991;BME280;64673;52.276;10.560;2024-01-25T10:00:32;101761.22;;;6.23;100.00
75991;BME280;64673;52.276;10.560;2024-01-25T10:02:58;101763.31;;;6.08;100.00
75991;BME280;64673;52.276;10.560;2024-01-25T10:05:23;101761.84;;;6.19;100.00
75991;BME280;64673;52.276;10.560;2024-01-25T10:07:49;101762.03;;;6.24;100.00
75991;BME280;64673;52.276;10.560;2024-01-25T10:10:14;101755.22;;;6.28;100.00
75991;BME280;64673;52.276;10.560;2024-01-25T10:12:41;101757.84;;;6.41;100.00
75991;BME280;64673;52.276;10.560;2024-01-25T10:15:07;101755.63;;;6.32;100.00
75991;BME280;64673;52.276;10.560;2024-01-25T10:17:33;101758.31;;;6.32;100.00
75991;BME280;64673;52.276;10.560;2024-01-25T10:19:58;101755.78;;;6.43;100.00
75991;BME280;64673;52.276;10.560;2024-01-25T10:22:24;101759.50;;;6.42;100.00
75991;BME280;64673;52.276;10.560;2024-01-25T10:24:49;101769.44;;;6.29;100.00
75991;BME280;64673;52.276;10.560;2024-01-25T10:27:16;101759.13;;;6.32;100.00
75991;BME280;64673;52.276;10.560;2024-01-25T10:29:43;101752.91;;;6.38;100.00
75991;BME280;64673;52.276;10.560;2024-01-25T10:32:08;101751.81;;;6.52;100.00
75991;BME280;64673;52.276;10.560;2024-01-25T10:34:37;101762.34;;;6.47;100.00
75991;BME280;64673;52.276;10.560;2024-01-25T10:37:05;101779.06;;;6.43;100.00
75991;BME280;64673;52.276;10.560;2024-01-25T10:39:32;101767.78;;;6.34;100.00
75991;BME280;64673;52.276;10.560;2024-01-25T10:41:58;101780.56;;;6.32;100.00
75991;BME280;64673;52.276;10.560;2024-01-25T10:44:24;101773.34;;;6.26;99.63
75991;BME280;64673;52.276;10.560;2024-01-25T10:46:49;101786.16;;;6.17;100.00
75991;BME280;64673;52.276;10.560;2024-01-25T10:49:16;101777.06;;;6.25;100.00
75991;BME280;64673;52.276;10.560;2024-01-25T10:51:41;101780.94;;;6.36;100.00
75991;BME280;64673;52.276;10.560;2024-01-25T10:54:08;101785.69;;;6.40;100.00
75991;BME280;64673;52.276;10.560;2024-01-25T10:56:37;101779.03;;;6.56;100.00
75991;BME280;64673;52.276;10.560;2024-01-25T10:59:06;101807.69;;;6.49;100.00
75991;BME280;64673;52.276;10.560;2024-01-25T11:01:33;101791.59;;;6.55;99.60
75991;BME280;64673;52.276;10.560;2024-01-25T11:04:00;101794.88;;;6.57;99.28
75991;BME280;64673;52.276;10.560;2024-01-25T11:06:27;101787.81;;;6.70;99.15
75991;BME280;64673;52.276;10.560;2024-01-25T11:09:03;101801.06;;;6.58;98.58
75991;BME280;64673;52.276;10.560;2024-01-25T11:11:30;101794.47;;;6.60;99.48
75991;BME280;64673;52.276;10.560;2024-01-25T11:13:56;101822.88;;;6.68;99.14
75991;BME280;64673;52.276;10.560;2024-01-25T11:16:30;101799.03;;;6.53;97.66
75991;BME280;64673;52.276;10.560;2024-01-25T11:19:00;101789.13;;;6.47;99.23
75991;BME280;64673;52.276;10.560;2024-01-25T11:21:42;101793.88;;;6.52;99.51
75991;BME280;64673;52.276;10.560;2024-01-25T11:24:20;101785.56;;;6.67;99.62
75991;BME280;64673;52.276;10.560;2024-01-25T11:26:47;101786.88;;;6.51;100.00
75991;BME280;64673;52.276;10.560;2024-01-25T11:29:19;101784.97;;;6.58;100.00
75991;BME280;64673;52.276;10.560;2024-01-25T11:31:47;101791.75;;;6.67;100.00
75991;BME280;64673;52.276;10.560;2024-01-25T11:34:14;101786.53;;;6.79;100.00
75991;BME280;64673;52.276;10.560;2024-01-25T11:36:40;101774.03;;;6.59;100.00
75991;BME280;64673;52.276;10.560;2024-01-25T11:39:11;101785.22;;;6.56;100.00
75991;BME280;64673;52.276;10.560;2024-01-25T11:41:37;101780.53;;;6.45;100.00
75991;BME280;64673;52.276;10.560;2024-01-25T11:44:03;101775.53;;;6.55;100.00
75991;BME280;64673;52.276;10.560;2024-01-25T11:46:32;101779.66;;;6.51;100.00
75991;BME280;64673;52.276;10.560;2024-01-25T11:48:58;101786.63;;;6.59;100.00
75991;BME280;64673;52.276;10.560;2024-01-25T11:51:24;101774.91;;;6.53;100.00
75991;BME280;64673;52.276;10.560;2024-01-25T11:53:49;101764.75;;;6.62;100.00
75991;BME280;64673;52.276;10.560;2024-01-25T11:56:22;101773.41;;;6.64;100.00
75991;BME280;64673;52.276;10.560;2024-01-25T11:58:50;101766.75;;;6.73;100.00
75991;BME280;64673;52.276;10.560;2024-01-25T12:01:17;101770.38;;;6.54;100.00
75991;BME280;64673;52.276;10.560;2024-01-25T12:03:43;101776.31;;;6.63;100.00
75991;BME280;64673;52.276;10.560;2024-01-25T12:06:09;101775.56;;;6.87;100.00
75991;BME280;64673;52.276;10.560;2024-01-25T12:08:35;101779.44;;;6.97;100.00
75991;BME280;64673;52.276;10.560;2024-01-25T12:11:08;101774.75;;;7.18;98.29
75991;BME280;64673;52.276;10.560;2024-01-25T12:13:43;101765.19;;;7.28;97.39
75991;BME280;64673;52.276;10.560;2024-01-25T12:16:10;101770.09;;;7.31;97.49
75991;BME280;64673;52.276;10.560;2024-01-25T12:18:37;101776.28;;;7.57;97.00
75991;BME280;64673;52.276;10.560;2024-01-25T12:21:03;101779.53;;;7.41;96.31
75991;BME280;64673;52.276;10.560;2024-01-25T12:23:37;101770.97;;;7.25;96.23
75991;BME280;64673;52.276;10.560;2024-01-25T12:26:09;101783.78;;;7.23;97.17
75991;BME280;64673;52.276;10.560;2024-01-25T12:28:35;101783.41;;;7.20;95.98
75991;BME280;64673;52.276;10.560;2024-01-25T12:31:03;101783.44;;;7.13;95.53
75991;BME280;64673;52.276;10.560;2024-01-25T12:33:29;101772.34;;;7.03;94.86
75991;BME280;64673;52.276;10.560;2024-01-25T12:35:55;101781.56;;;7.20;95.28
75991;BME280;64673;52.276;10.560;2024-01-25T12:38:21;101770.47;;;7.35;95.13